Time;durP1;ratioP1;P1;durP2;ratioP2;P2;SDS_P1;SDS_P2;PMS_P1;PMS_P2;Temp;Humidity;BMP_temperature;BMP_pressure;BME280_temperature;BME280_humidity;BME280_pressure;Samples;Min_cycle;Max_cycle;Signal;HPM_P1;HPM_P2
2023/05/20 00:01:23;;;;;;;8.00;2.83;;;;;;;14.76;67.28;102405.09;4963658;28;20098;-72
2023/05/20 00:03:50;;;;;;;8.18;2.97;;;;;;;14.72;68.17;102403.69;4967389;28;20055;-72
2023/05/20 00:06:17;;;;;;;11.23;3.47;;;;;;;14.67;69.06;102402.41;4961627;28;20059;-72
2023/05/20 00:08:43;;;;;;;9.23;3.00;;;;;;;14.66;67.61;102403.38;4963663;28;20059;-72
2023/05/20 00:11:10;;;;;;;9.27;3.47;;;;;;;14.60;69.30;102402.09;4940002;28;20125;-72
2023/05/20 00:13:37;;;;;;;9.40;3.50;;;;;;;14.58;69.34;102407.53;4964232;28;20161;-72
2023/05/20 00:16:05;;;;;;;8.00;3.45;;;;;;;14.54;69.65;102406.09;4969083;28;20057;-72
2023/05/20 00:18:31;;;;;;;8.40;3.30;;;;;;;14.52;69.93;102402.75;4966904;28;20197;-72
2023/05/20 00:20:58;;;;;;;7.45;3.30;;;;;;;14.54;68.52;102400.81;4969575;28;20066;-72
2023/05/20 00:23:24;;;;;;;7.13;3.20;;;;;;;14.54;70.31;102399.97;4944719;28;20555;-72
2023/05/20 00:25:51;;;;;;;7.65;2.90;;;;;;;14.58;67.07;102406.69;4965722;28;20154;-72
2023/05/20 00:28:18;;;;;;;8.00;3.35;;;;;;;14.59;69.10;102411.00;4955681;28;20603;-72
2023/05/20 00:30:45;;;;;;;7.32;2.90;;;;;;;14.52;71.04;102410.66;4965049;28;20057;-72
2023/05/20 00:33:11;;;;;;;7.57;3.08;;;;;;;14.53;70.66;102403.59;4962627;28;20555;-73
2023/05/20 00:35:38;;;;;;;8.60;3.15;;;;;;;14.50;71.38;102402.03;4944103;28;20059;-72
2023/05/20 00:38:05;;;;;;;11.18;3.50;;;;;;;14.48;71.40;102408.44;4958586;28;20519;-73
2023/05/20 00:40:31;;;;;;;7.25;2.92;;;;;;;14.49;70.23;102399.56;4941880;28;20062;-73
2023/05/20 00:42:58;;;;;;;8.57;3.17;;;;;;;14.49;70.40;102400.38;4944427;28;20066;-73
2023/05/20 00:45:24;;;;;;;12.10;3.45;;;;;;;14.47;71.46;102397.03;4961430;28;20142;-73
2023/05/20 00:47:51;;;;;;;8.68;2.97;;;;;;;14.44;71.24;102405.22;4968200;28;20089;-72
2023/05/20 00:50:18;;;;;;;5.40;2.63;;;;;;;14.48;69.54;102396.06;4950575;28;20089;-72
2023/05/20 00:52:47;;;;;;;8.45;3.13;;;;;;;14.49;71.75;102397.75;4953774;28;20077;-72
2023/05/20 00:55:13;;;;;;;8.10;2.83;;;;;;;14.47;71.29;102393.56;4962025;28;20279;-72
2023/05/20 00:57:40;;;;;;;6.70;3.28;;;;;;;14.46;71.49;102392.72;4956076;28;20090;-74
2023/05/20 01:00:09;;;;;;;9.15;3.20;;;;;;;14.49;71.40;102391.63;4965152;28;20047;-72
2023/05/20 01:02:35;;;;;;;6.40;2.92;;;;;;;14.54;68.78;102390.25;4965709;28;20795;-72
2023/05/20 01:05:02;;;;;;;9.65;3.90;;;;;;;14.51;71.92;102385.25;4954134;28;20103;-72
2023/05/20 01:07:29;;;;;;;7.15;3.13;;;;;;;14.46;71.04;102376.06;4965462;28;20125;-73
2023/05/20 01:09:56;;;;;;;11.70;3.53;;;;;;;14.49;71.72;102376.63;4952391;28;20054;-72
2023/05/20 01:12:47;;;;;;;6.25;3.40;;;;;;;14.46;72.96;102392.72;4943461;28;20138;-73
2023/05/20 01:15:14;;;;;;;5.45;2.85;;;;;;;14.44;72.00;102384.97;4950235;28;20451;-72
2023/05/20 01:17:48;;;;;;;6.70;2.80;;;;;;;14.44;72.20;102376.19;4963714;28;20102;-73
2023/05/20 01:20:17;;;;;;;7.22;3.15;;;;;;;14.38;73.41;102376.72;4972815;28;20046;-73
2023/05/20 01:22:55;;;;;;;7.60;3.50;;;;;;;14.38;73.08;102384.63;4966560;28;20055;-73
2023/05/20 01:25:23;;;;;;;7.80;2.95;;;;;;;14.32;73.44;102383.34;4938939;28;20059;-73
2023/05/20 01:27:51;;;;;;;7.03;2.88;;;;;;;14.31;72.34;102392.25;4965924;28;20046;-73
2023/05/20 01:30:19;;;;;;;5.95;2.75;;;;;;;14.30;72.57;102379.19;4955311;28;20062;-72
2023/05/20 01:33:00;;;;;;;13.73;3.67;;;;;;;14.27;74.78;102377.66;4953633;28;20063;-72
2023/05/20 01:35:28;;;;;;;8.10;3.25;;;;;;;14.23;74.68;102386.81;4946630;28;20483;-72
2023/05/20 01:37:57;;;;;;;5.97;3.37;;;;;;;14.23;74.49;102377.09;4957695;28;20050;-73
2023/05/20 01:40:25;;;;;;;7.05;3.15;;;;;;;14.23;76.29;102379.72;4965494;28;20055;-73
2023/05/20 01:42:53;;;;;;;15.30;3.90;;;;;;;14.27;75.89;102368.88;4960000;28;20054;-72
2023/05/20 01:45:22;;;;;;;7.20;3.42;;;;;;;14.27;74.27;102377.66;4942419;28;20121;-72
2023/05/20 01:47:49;;;;;;;8.02;3.53;;;;;;;14.26;76.35;102367.22;4963602;28;20511;-72
2023/05/20 01:50:16;;;;;;;9.60;4.10;;;;;;;14.24;77.30;102370.00;4959470;28;20062;-73
2023/05/20 01:52:43;;;;;;;8.60;3.88;;;;;;;14.29;75.45;102366.94;4980090;28;20261;-72
2023/05/20 01:55:09;;;;;;;10.68;3.65;;;;;;;14.30;75.63;102364.19;4943429;28;20410;-73
2023/05/20 01:57:36;;;;;;;6.72;3.25;;;;;;;14.28;76.44;102360.00;4968914;28;20055;-74
2023/05/20 02:00:03;;;;;;;8.85;4.13;;;;;;;14.28;76.41;102365.28;4938555;28;20109;-73
2023/05/20 02:02:29;;;;;;;6.78;2.90;;;;;;;14.27;74.30;102359.19;4965671;28;20062;-73
2023/05/20 02:04:56;;;;;;;8.88;3.42;;;;;;;14.29;76.33;102361.66;4949055;28;20061;-72
2023/05/20 02:07:23;;;;;;;5.35;2.75;;;;;;;14.19;76.93;102354.56;4942266;28;20133;-72
2023/05/20 02:09:49;;;;;;;6.45;2.97;;;;;;;14.24;74.97;102356.81;4948870;28;20050;-72
2023/05/20 02:12:16;;;;;;;7.65;2.75;;;;;;;14.27;74.77;102364.47;4955159;28;20070;-72
2023/05/20 02:14:47;;;;;;;7.32;3.28;;;;;;;14.20;77.63;102363.31;4944386;28;20046;-72
2023/05/20 02:17:15;;;;;;;9.30;3.63;;;;;;;14.16;78.87;102356.63;4942370;28;20047;-72
2023/05/20 02:19:42;;;;;;;;;;;;;;;14.26;73.77;102361.94;4952056;28;20417;-72
2023/05/20 02:22:09;;;;;;;7.65;3.33;;;;;;;14.20;77.90;102368.59;4964748;28;20226;-72
2023/05/20 02:24:35;;;;;;;8.80;3.25;;;;;;;14.15;79.34;102353.16;4941879;28;20055;-73
2023/05/20 02:27:03;;;;;;;9.43;3.15;;;;;;;14.11;78.70;102359.66;4947148;28;20137;-72
2023/05/20 02:29:30;;;;;;;11.00;3.50;;;;;;;14.13;78.56;102356.88;4951611;28;20160;-72
2023/05/20 02:31:57;;;;;;;9.98;3.55;;;;;;;14.11;79.58;102351.72;4964808;28;20062;-73
2023/05/20 02:34:24;;;;;;;6.38;2.90;;;;;;;14.08;80.44;102354.66;4960617;28;20059;-73
2023/05/20 02:36:51;;;;;;;7.38;3.40;;;;;;;14.08;80.05;102340.63;4946620;28;20112;-73
2023/05/20 02:39:18;;;;;;;6.75;3.30;;;;;;;14.09;78.25;102347.56;4943649;28;20442;-73
2023/05/20 02:41:44;;;;;;;7.13;3.30;;;;;;;14.11;79.52;102348.25;4951463;28;20113;-73
2023/05/20 02:44:11;;;;;;;8.40;3.10;;;;;;;14.10;78.23;102342.16;4943962;28;20054;-73
2023/05/20 02:46:38;;;;;;;13.35;3.20;;;;;;;14.11;79.58;102338.53;4947037;28;20447;-72
2023/05/20 02:49:04;;;;;;;7.40;3.47;;;;;;;14.06;79.30;102335.47;4956734;28;20173;-72
2023/05/20 02:51:32;;;;;;;8.10;4.00;;;;;;;14.07;79.62;102337.13;4978180;28;20348;-73
2023/05/20 02:53:58;;;;;;;6.95;3.10;;;;;;;14.02;80.41;102332.28;4972244;28;20287;-72
2023/05/20 02:56:25;;;;;;;8.98;3.50;;;;;;;14.00;81.22;102326.28;4959588;28;20046;-72
2023/05/20 02:58:52;;;;;;;6.43;3.60;;;;;;;13.97;79.77;102328.34;4958309;28;20054;-72
2023/05/20 03:01:19;;;;;;;9.00;3.20;;;;;;;13.95;79.17;102328.47;4948678;28;20440;-72
2023/05/20 03:03:45;;;;;;;6.22;3.42;;;;;;;13.89;80.91;102329.00;4949639;28;20058;-72
2023/05/20 03:06:12;;;;;;;7.47;3.10;;;;;;;13.92;80.13;102351.66;4948550;28;20055;-73
2023/05/20 03:08:38;;;;;;;6.70;3.63;;;;;;;13.87;81.62;102338.84;4942930;28;20051;-72
2023/05/20 03:11:05;;;;;;;5.65;2.75;;;;;;;13.83;79.07;102343.53;4955565;28;20656;-72
2023/05/20 03:13:33;;;;;;;6.22;2.55;;;;;;;13.87;77.57;102340.66;4965296;28;20419;-73
2023/05/20 03:16:00;;;;;;;7.88;2.90;;;;;;;13.84;80.67;102339.13;4945547;28;20062;-72
2023/05/20 03:18:27;;;;;;;7.70;3.00;;;;;;;13.87;78.91;102341.50;4976202;28;20464;-72
2023/05/20 03:20:53;;;;;;;7.13;3.38;;;;;;;13.78;82.24;102340.47;4953460;28;20553;-72
2023/05/20 03:23:20;;;;;;;7.20;3.13;;;;;;;13.76;81.06;102333.66;4955130;28;20746;-73
2023/05/20 03:25:47;;;;;;;6.40;3.22;;;;;;;13.76;80.61;102347.69;4964658;28;20050;-72
2023/05/20 03:28:16;;;;;;;6.68;3.40;;;;;;;13.68;82.12;102333.47;4960306;28;20046;-72
2023/05/20 03:30:43;;;;;;;7.35;3.10;;;;;;;13.74;82.41;102349.63;4951696;28;20063;-73
2023/05/20 03:33:10;;;;;;;5.65;3.03;;;;;;;13.68;81.93;102344.00;4959174;28;20058;-72
2023/05/20 03:35:36;;;;;;;8.27;3.50;;;;;;;13.59;84.99;102346.47;4964082;28;20055;-72
2023/05/20 03:38:03;;;;;;;8.15;3.95;;;;;;;13.55;85.30;102349.50;4954911;28;20062;-72
2023/05/20 03:40:29;;;;;;;9.50;3.70;;;;;;;13.51;86.22;102353.38;4958099;28;20434;-73
2023/05/20 03:42:57;;;;;;;7.53;3.42;;;;;;;13.46;85.39;102351.09;4989114;28;20050;-73
2023/05/20 03:45:23;;;;;;;7.22;3.38;;;;;;;13.38;87.20;102349.09;4935275;28;20047;-73
2023/05/20 03:47:50;;;;;;;6.55;3.58;;;;;;;13.36;85.68;102344.91;4952032;28;20057;-73
2023/05/20 03:50:17;;;;;;;9.45;3.50;;;;;;;13.38;85.46;102351.72;4939788;28;20737;-73
2023/05/20 03:52:44;;;;;;;9.35;3.75;;;;;;;13.36;87.07;102345.75;4940004;29;20078;-73
2023/05/20 03:55:11;;;;;;;9.70;3.60;;;;;;;13.34;87.46;102355.59;4947084;28;20606;-73
2023/05/20 03:57:39;;;;;;;7.90;3.67;;;;;;;13.33;87.15;102358.34;4960023;28;20086;-73
2023/05/20 04:00:10;;;;;;;8.43;3.63;;;;;;;13.29;88.19;102352.47;4966030;28;20051;-73
2023/05/20 04:02:38;;;;;;;7.57;3.75;;;;;;;13.20;89.59;102351.41;4942225;28;20097;-72
2023/05/20 04:05:07;;;;;;;8.65;3.70;;;;;;;13.15;89.83;102343.06;4973907;28;20050;-72
2023/05/20 04:07:34;;;;;;;5.85;3.45;;;;;;;13.17;89.47;102346.41;4961050;28;20496;-71
2023/05/20 04:10:03;;;;;;;8.07;3.88;;;;;;;13.17;87.54;102343.78;4967588;28;20134;-71
2023/05/20 04:12:31;;;;;;;9.35;3.60;;;;;;;13.17;88.22;102348.19;4951540;28;20046;-71
2023/05/20 04:15:01;;;;;;;7.53;3.78;;;;;;;13.18;89.06;102350.72;4963883;28;20146;-72
2023/05/20 04:17:29;;;;;;;8.02;3.58;;;;;;;13.17;89.23;102348.19;4965139;28;20051;-72
2023/05/20 04:19:57;;;;;;;7.23;3.10;;;;;;;13.16;89.39;102354.44;4944985;28;20492;-72
2023/05/20 04:22:23;;;;;;;8.30;3.70;;;;;;;13.16;90.79;102357.91;4960864;28;20046;-72
2023/05/20 04:24:50;;;;;;;8.48;3.38;;;;;;;13.16;90.54;102357.91;4943463;28;20065;-71
2023/05/20 04:27:16;;;;;;;5.03;3.08;;;;;;;13.15;90.43;102358.03;4953804;28;20706;-71
2023/05/20 04:29:46;;;;;;;5.55;3.15;;;;;;;13.12;90.12;102353.84;4967394;28;20054;-72
2023/05/20 04:32:13;;;;;;;6.60;2.95;;;;;;;13.16;90.91;102355.28;4956216;28;20071;-72
2023/05/20 04:34:40;;;;;;;9.05;3.17;;;;;;;13.15;89.25;102360.66;4962814;28;20058;-71
2023/05/20 04:37:08;;;;;;;7.15;3.22;;;;;;;13.08;91.29;102356.88;4959194;28;20077;-72
2023/05/20 04:39:35;;;;;;;6.47;2.90;;;;;;;13.14;90.81;102351.09;4954854;28;20137;-71
2023/05/20 04:42:02;;;;;;;6.72;2.70;;;;;;;13.14;91.59;102356.38;4959656;28;20074;-71
2023/05/20 04:44:29;;;;;;;6.72;2.90;;;;;;;13.13;90.12;102346.78;4945011;28;20756;-73
2023/05/20 04:46:58;;;;;;;5.55;2.83;;;;;;;13.19;89.21;102362.94;4978775;28;20116;-73
2023/05/20 04:49:25;;;;;;;9.63;3.33;;;;;;;13.23;87.60;102363.50;4954645;28;20117;-73
2023/05/20 04:51:54;;;;;;;6.55;3.30;;;;;;;13.22;88.99;102361.84;4950254;28;20057;-73
2023/05/20 04:54:20;;;;;;;;;;;;;;;13.24;90.57;102368.66;4960374;28;20054;-72
2023/05/20 04:56:47;;;;;;;5.30;2.88;;;;;;;13.28;85.78;102357.88;4949866;28;20396;-73
2023/05/20 04:59:14;;;;;;;6.45;3.08;;;;;;;13.31;88.03;102360.25;4979924;28;20170;-73
2023/05/20 05:01:42;;;;;;;7.43;3.10;;;;;;;13.31;88.67;102374.31;4970046;28;20062;-72
2023/05/20 05:04:08;;;;;;;5.37;2.40;;;;;;;13.30;85.72;102366.50;4950128;28;20062;-73
2023/05/20 05:06:35;;;;;;;4.38;2.45;;;;;;;13.34;87.66;102357.38;4943716;28;20046;-72
2023/05/20 05:09:02;;;;;;;5.65;2.60;;;;;;;13.39;87.03;102358.69;4949290;28;20351;-74
2023/05/20 05:11:28;;;;;;;10.10;3.40;;;;;;;13.41;85.37;102354.13;4944977;28;20054;-72
2023/05/20 05:13:55;;;;;;;7.88;3.08;;;;;;;13.42;87.52;102361.03;4964891;28;20754;-73
2023/05/20 05:16:22;;;;;;;6.88;2.65;;;;;;;13.39;87.78;102350.78;4967025;28;20054;-73
2023/05/20 05:18:48;;;;;;;3.60;2.40;;;;;;;13.40;87.63;102351.59;4960065;28;20051;-73
2023/05/20 05:21:15;;;;;;;7.28;2.88;;;;;;;13.40;87.57;102352.44;4966663;28;20092;-72
2023/05/20 05:23:42;;;;;;;5.30;2.90;;;;;;;13.44;85.63;102345.94;4975565;28;20054;-73
2023/05/20 05:26:08;;;;;;;8.18;3.08;;;;;;;13.44;86.94;102350.38;4976829;28;20523;-73
2023/05/20 05:28:35;;;;;;;7.30;2.92;;;;;;;13.44;87.79;102348.56;4944674;28;20054;-73
2023/05/20 05:31:02;;;;;;;5.40;2.47;;;;;;;13.46;87.41;102345.81;4948782;28;20532;-74
2023/05/20 05:33:29;;;;;;;5.38;2.95;;;;;;;13.50;85.62;102349.03;4965961;28;20113;-73
2023/05/20 05:35:57;;;;;;;4.10;2.65;;;;;;;13.55;85.33;102341.59;4970581;28;20055;-72
2023/05/20 05:38:24;;;;;;;5.97;3.00;;;;;;;13.56;87.39;102351.16;4960079;28;20082;-73
2023/05/20 05:40:52;;;;;;;7.43;3.03;;;;;;;13.56;88.25;102351.16;4954198;28;20109;-73
2023/05/20 05:43:18;;;;;;;9.70;3.20;;;;;;;13.57;89.15;102344.94;4968194;28;20061;-73
2023/05/20 05:45:45;;;;;;;6.25;2.90;;;;;;;13.56;85.10;102346.72;4950999;28;20126;-73
2023/05/20 05:48:11;;;;;;;4.75;3.13;;;;;;;13.63;84.33;102347.88;4965908;28;20051;-73
2023/05/20 05:50:38;;;;;;;6.97;3.05;;;;;;;13.66;87.48;102354.69;4961768;28;20054;-73
2023/05/20 05:53:05;;;;;;;6.53;3.10;;;;;;;13.68;86.88;102355.44;4948881;28;20046;-73
2023/05/20 05:55:32;;;;;;;4.63;2.58;;;;;;;13.70;87.48;102345.56;4958292;28;20299;-73
2023/05/20 05:57:58;;;;;;;8.20;3.00;;;;;;;13.61;85.80;102331.34;4960643;28;20094;-73
2023/05/20 06:00:25;;;;;;;4.93;2.70;;;;;;;13.68;87.61;102347.50;4981155;28;20518;-73
2023/05/20 06:02:52;;;;;;;7.15;3.00;;;;;;;13.75;85.95;102342.53;4965360;28;20084;-73
2023/05/20 06:05:18;;;;;;;4.38;2.65;;;;;;;13.79;84.69;102347.41;4938824;28;20133;-73
2023/05/20 06:07:45;;;;;;;8.95;3.13;;;;;;;13.80;86.01;102345.63;4976808;28;20133;-74
2023/05/20 06:10:12;;;;;;;4.78;2.95;;;;;;;13.85;86.42;102349.53;4973119;28;20142;-73
2023/05/20 06:12:38;;;;;;;6.70;3.00;;;;;;;13.88;85.46;102340.53;4968515;28;20046;-74
2023/05/20 06:15:06;;;;;;;8.23;2.90;;;;;;;13.89;86.51;102336.91;4950965;28;20055;-71
2023/05/20 06:17:33;;;;;;;5.78;2.67;;;;;;;13.93;86.45;102343.59;4963822;28;20047;-73
2023/05/20 06:20:00;;;;;;;6.25;2.97;;;;;;;13.90;85.80;102338.59;4961757;28;20057;-72
2023/05/20 06:22:26;;;;;;;4.13;2.30;;;;;;;13.98;84.28;102338.78;4947241;28;20050;-73
2023/05/20 06:24:55;;;;;;;8.55;2.92;;;;;;;14.00;86.43;102334.19;4975786;28;20063;-72
2023/05/20 06:27:22;;;;;;;4.22;2.35;;;;;;;14.06;86.12;102330.19;4940333;28;20054;-72
2023/05/20 06:29:48;;;;;;;4.28;2.60;;;;;;;14.07;86.40;102320.47;4979819;28;20050;-72
2023/05/20 06:32:15;;;;;;;6.95;2.80;;;;;;;14.04;86.00;102316.31;4959072;28;20058;-73
2023/05/20 06:34:44;;;;;;;5.28;2.80;;;;;;;14.18;85.63;102321.22;4955538;28;20047;-73
2023/05/20 06:37:11;;;;;;;4.80;2.42;;;;;;;14.24;84.75;102330.41;4946598;28;20054;-73
2023/05/20 06:39:38;;;;;;;5.43;3.05;;;;;;;14.27;86.03;102331.94;4974888;28;20050;-73
2023/05/20 06:42:05;;;;;;;4.65;2.60;;;;;;;14.28;87.44;102325.69;4965882;28;20078;-74
2023/05/20 06:44:32;;;;;;;4.20;2.47;;;;;;;14.32;85.39;102316.53;4942773;28;20054;-72
2023/05/20 06:46:58;;;;;;;5.38;2.80;;;;;;;14.40;83.39;102319.34;4961188;28;20101;-74
2023/05/20 06:49:25;;;;;;;3.92;2.40;;;;;;;14.40;81.49;102314.88;4955187;28;20065;-73
2023/05/20 06:51:51;;;;;;;5.25;2.65;;;;;;;14.46;82.01;102316.16;4965154;28;20648;-74
2023/05/20 06:54:18;;;;;;;5.53;2.70;;;;;;;14.52;81.08;102307.69;4965800;28;20499;-73
2023/05/20 06:56:44;;;;;;;5.90;2.15;;;;;;;14.63;80.19;102309.41;4943812;28;20062;-74
2023/05/20 06:59:11;;;;;;;7.55;2.70;;;;;;;14.66;82.54;102306.50;4957920;28;20102;-72
2023/05/20 07:01:38;;;;;;;4.53;2.50;;;;;;;14.68;78.43;102298.44;4938103;28;20124;-73
2023/05/20 07:04:05;;;;;;;4.88;2.58;;;;;;;14.77;80.32;102310.81;4958845;28;20141;-73
2023/05/20 07:06:32;;;;;;;4.22;2.28;;;;;;;14.82;81.60;102303.34;4974774;28;20396;-73
2023/05/20 07:09:01;;;;;;;9.30;2.75;;;;;;;14.83;81.73;102302.34;4948418;28;20077;-73
2023/05/20 07:11:27;;;;;;;4.43;2.58;;;;;;;14.89;80.18;102301.78;4986650;28;20150;-74
2023/05/20 07:13:54;;;;;;;6.75;2.80;;;;;;;15.00;77.67;102303.47;4943809;28;20074;-72
2023/05/20 07:16:21;;;;;;;8.02;2.70;;;;;;;15.02;78.64;102294.44;4944146;28;20058;-74
2023/05/20 07:18:48;;;;;;;4.32;2.67;;;;;;;15.05;79.30;102305.69;4938888;28;20060;-73
2023/05/20 07:21:15;;;;;;;5.82;2.55;;;;;;;15.12;77.55;102294.41;4950376;28;20062;-72
2023/05/20 07:23:42;;;;;;;4.65;2.80;;;;;;;15.18;79.86;102295.66;4950297;28;20146;-73
2023/05/20 07:26:09;;;;;;;4.57;2.58;;;;;;;15.22;78.73;102297.88;4960296;28;20059;-72
2023/05/20 07:28:37;;;;;;;5.82;2.90;;;;;;;15.27;81.07;102296.63;4961756;28;20450;-73
2023/05/20 07:31:04;;;;;;;6.82;3.45;;;;;;;15.33;78.78;102290.78;4966818;28;20078;-74
2023/05/20 07:33:31;;;;;;;4.95;2.70;;;;;;;15.37;77.98;102279.78;4965950;28;20768;-73
2023/05/20 07:35:58;;;;;;;6.93;3.05;;;;;;;15.41;77.75;102283.81;4976168;28;20567;-74
2023/05/20 07:38:25;;;;;;;6.25;2.67;;;;;;;15.47;75.79;102281.56;4951014;28;20086;-73
2023/05/20 07:40:52;;;;;;;7.88;3.05;;;;;;;15.57;74.58;102292.97;4955948;28;20118;-74
2023/05/20 07:43:19;;;;;;;9.60;2.78;;;;;;;15.59;74.32;102281.25;4956110;28;20146;-73
2023/05/20 07:45:45;;;;;;;6.55;3.13;;;;;;;15.65;74.99;102271.91;4947318;28;20110;-72
2023/05/20 07:48:12;;;;;;;7.10;3.30;;;;;;;15.69;75.39;102275.09;4966452;28;20074;-73
2023/05/20 07:50:39;;;;;;;6.97;3.08;;;;;;;15.77;73.68;102275.25;4954754;28;20083;-73
2023/05/20 07:53:06;;;;;;;5.78;2.70;;;;;;;15.86;75.00;102276.16;4946793;28;20083;-73
2023/05/20 07:55:33;;;;;;;4.97;2.47;;;;;;;15.95;73.92;102278.78;4950764;28;20049;-72
2023/05/20 07:58:00;;;;;;;12.63;3.17;;;;;;;15.96;74.75;102269.03;4941358;28;20110;-72
2023/05/20 08:00:27;;;;;;;5.88;2.70;;;;;;;16.01;75.06;102267.63;4964985;28;20102;-72
2023/05/20 08:02:53;;;;;;;4.40;2.80;;;;;;;16.08;73.40;102270.50;4970439;28;20050;-73
2023/05/20 08:05:21;;;;;;;4.13;2.83;;;;;;;16.17;71.87;102268.78;4954455;28;20055;-73
2023/05/20 08:07:48;;;;;;;5.43;2.80;;;;;;;16.21;71.47;102268.34;4962300;28;20467;-73
2023/05/20 08:10:14;;;;;;;6.72;3.10;;;;;;;16.28;72.00;102270.41;4952959;28;20137;-73
2023/05/20 08:12:41;;;;;;;7.18;3.13;;;;;;;16.34;68.95;102267.97;4956675;28;20054;-73
2023/05/20 08:15:07;;;;;;;3.53;2.70;;;;;;;16.39;70.23;102263.06;4964409;28;20109;-73
2023/05/20 08:17:34;;;;;;;7.43;3.00;;;;;;;16.43;68.10;102262.78;4960708;28;20130;-74
2023/05/20 08:20:03;;;;;;;5.95;2.90;;;;;;;16.57;67.79;102259.63;4985247;28;20569;-72
2023/05/20 08:22:30;;;;;;;4.40;2.78;;;;;;;16.74;67.36;102260.56;4947250;28;20050;-73
2023/05/20 08:24:57;;;;;;;5.43;2.20;;;;;;;16.97;66.54;102264.47;4953839;28;20105;-72
2023/05/20 08:27:23;;;;;;;5.95;2.42;;;;;;;17.27;64.77;102270.34;4943449;28;20085;-73
2023/05/20 08:29:50;;;;;;;5.00;3.00;;;;;;;17.53;62.14;102257.06;4966276;28;20146;-73
2023/05/20 08:32:17;;;;;;;6.60;2.63;;;;;;;17.88;62.38;102254.44;4966693;28;20782;-74
2023/05/20 08:34:43;;;;;;;3.88;2.75;;;;;;;18.27;61.86;102243.25;4960778;28;20051;-73
2023/05/20 08:37:10;;;;;;;6.10;2.67;;;;;;;18.64;59.65;102253.47;4966201;28;20054;-73
2023/05/20 08:39:37;;;;;;;5.78;2.65;;;;;;;19.03;59.40;102236.84;4957676;28;20054;-73
2023/05/20 08:42:05;;;;;;;4.05;2.50;;;;;;;19.38;57.80;102237.47;4962956;28;20046;-73
2023/05/20 08:44:33;;;;;;;6.40;3.10;;;;;;;19.68;56.35;102241.22;4954555;28;20051;-73
2023/05/20 08:47:02;;;;;;;4.88;2.00;;;;;;;19.98;55.94;102246.78;4940228;28;20358;-73
2023/05/20 08:49:30;;;;;;;8.27;2.40;;;;;;;20.25;53.74;102232.13;4963096;28;20059;-73
2023/05/20 08:51:59;;;;;;;5.80;2.30;;;;;;;20.37;51.87;102234.41;4957164;28;20114;-73
2023/05/20 08:54:36;;;;;;;6.88;2.47;;;;;;;20.62;52.28;102233.25;4943593;28;20058;-73
2023/05/20 08:57:04;;;;;;;8.05;2.25;;;;;;;20.78;51.49;102226.09;4954127;28;20055;-73
2023/05/20 08:59:31;;;;;;;5.22;2.00;;;;;;;20.97;50.78;102222.09;4964789;28;20062;-73
2023/05/20 09:01:58;;;;;;;4.25;2.22;;;;;;;21.11;50.45;102234.63;4961908;28;20142;-73
2023/05/20 09:04:25;;;;;;;5.50;2.10;;;;;;;21.33;51.13;102224.91;4968241;28;20062;-73
2023/05/20 09:06:52;;;;;;;9.73;2.05;;;;;;;21.35;49.20;102211.38;4963992;28;20050;-73
2023/05/20 09:09:19;;;;;;;4.70;2.33;;;;;;;21.53;48.61;102218.03;4955237;28;20495;-71
2023/05/20 09:11:45;;;;;;;5.67;2.03;;;;;;;21.72;48.72;102215.81;4980417;28;20074;-72
2023/05/20 09:14:12;;;;;;;4.07;2.22;;;;;;;21.82;47.81;102224.34;4963518;28;20940;-71
2023/05/20 09:16:39;;;;;;;8.60;2.35;;;;;;;21.91;48.37;102223.22;4967777;28;20050;-71
2023/05/20 09:19:08;;;;;;;3.45;2.30;;;;;;;21.96;47.39;102205.81;4960410;28;20054;-71
2023/05/20 09:21:36;;;;;;;3.65;1.92;;;;;;;22.04;47.78;102208.38;4961962;28;20051;-71
2023/05/20 09:24:02;;;;;;;3.08;1.95;;;;;;;22.19;46.62;102206.47;4960399;28;20069;-72
2023/05/20 09:26:29;;;;;;;3.85;2.10;;;;;;;22.37;46.32;102205.25;4974102;28;20061;-71
2023/05/20 09:28:56;;;;;;;4.13;1.95;;;;;;;22.53;46.11;102204.16;4949866;28;20146;-74
2023/05/20 09:31:33;;;;;;;5.72;1.70;;;;;;;22.71;46.67;102204.50;4957568;28;20138;-71
2023/05/20 09:34:00;;;;;;;4.65;1.90;;;;;;;22.70;46.44;102205.53;4960546;28;20105;-71
2023/05/20 09:36:30;;;;;;;3.88;1.73;;;;;;;22.81;45.75;102199.63;4938526;28;20059;-72
2023/05/20 09:39:03;;;;;;;7.40;2.30;;;;;;;22.89;45.09;102196.84;4939284;28;20065;-71
2023/05/20 09:42:03;;;;;;;6.88;2.42;;;;;;;22.86;44.68;102185.69;4938083;28;20043;-71
2023/05/20 09:44:30;;;;;;;4.43;2.10;;;;;;;22.66;45.69;102204.25;4940545;28;20054;-71
2023/05/20 09:46:58;;;;;;;2.85;1.90;;;;;;;22.58;45.92;102191.00;4949406;28;20085;-72
2023/05/20 09:49:27;;;;;;;3.15;1.60;;;;;;;22.42;46.61;102192.09;4944569;28;20047;-72
2023/05/20 09:51:55;;;;;;;3.40;1.85;;;;;;;22.55;46.78;102194.91;4946458;28;20063;-72
2023/05/20 09:54:24;;;;;;;2.42;1.70;;;;;;;22.74;47.93;102185.41;4947959;28;20122;-71
2023/05/20 09:56:52;;;;;;;6.25;1.98;;;;;;;22.99;46.94;102188.47;4974751;28;20059;-72
2023/05/20 09:59:21;;;;;;;3.83;1.95;;;;;;;23.04;44.84;102185.22;4947287;28;20512;-71
2023/05/20 10:01:47;;;;;;;5.50;1.92;;;;;;;23.18;45.42;102181.59;4964386;28;20062;-72
2023/05/20 10:04:16;;;;;;;6.00;2.42;;;;;;;23.33;44.72;102181.47;4956461;28;20507;-72
2023/05/20 10:07:05;;;;;;;3.97;2.15;;;;;;;23.54;43.76;102185.91;4964656;28;20472;-72
2023/05/20 10:09:55;;;;;;;5.10;1.80;;;;;;;23.68;44.44;102174.19;4965686;28;20109;-71
2023/05/20 10:12:49;;;;;;;3.97;2.00;;;;;;;23.82;43.91;102176.97;4954033;28;20054;-71
2023/05/20 10:15:23;;;;;;;4.13;1.95;;;;;;;23.96;45.38;102170.59;4954223;28;20106;-71
2023/05/20 10:18:21;;;;;;;6.65;2.20;;;;;;;23.97;44.42;102172.25;4938762;28;20109;-72
2023/05/20 10:20:49;;;;;;;4.75;2.00;;;;;;;23.99;43.78;102170.19;4943579;28;20054;-72
2023/05/20 10:23:23;;;;;;;3.38;1.60;;;;;;;24.15;43.69;102171.66;4957233;28;20506;-72
2023/05/20 10:25:54;;;;;;;5.88;2.17;;;;;;;24.06;43.56;102162.16;4950550;28;20079;-72
2023/05/20 10:28:29;;;;;;;3.63;1.85;;;;;;;24.15;43.69;102158.25;4978126;28;20054;-72
2023/05/20 10:30:59;;;;;;;4.13;2.10;;;;;;;24.05;42.74;102142.59;4983413;28;20081;-71
2023/05/20 10:33:29;;;;;;;3.10;1.95;;;;;;;23.94;43.31;102145.84;4972549;28;20051;-72
2023/05/20 10:35:59;;;;;;;4.70;1.90;;;;;;;24.11;43.64;102148.97;4951073;28;20491;-72
2023/05/20 10:38:26;;;;;;;6.07;2.28;;;;;;;24.22;42.56;102151.03;4962925;28;20050;-72
2023/05/20 10:40:53;;;;;;;3.47;1.80;;;;;;;24.33;42.32;102154.16;4945101;28;20067;-72
2023/05/20 10:43:27;;;;;;;3.55;1.70;;;;;;;24.54;43.17;102143.25;4964818;28;20203;-71
2023/05/20 10:45:56;;;;;;;4.65;1.90;;;;;;;24.51;42.15;102140.97;4938340;28;20070;-72
2023/05/20 10:48:30;;;;;;;4.57;1.95;;;;;;;24.36;41.54;102143.00;4957727;28;20412;-71
2023/05/20 10:51:02;;;;;;;2.45;1.80;;;;;;;24.53;42.36;102141.59;4940249;28;20058;-72
2023/05/20 10:53:38;;;;;;;7.35;1.88;;;;;;;24.60;42.26;102141.56;4945880;28;20059;-72
2023/05/20 10:56:05;;;;;;;6.07;1.80;;;;;;;24.66;42.69;102143.44;4954521;28;20056;-72
2023/05/20 10:58:37;;;;;;;3.97;1.80;;;;;;;24.67;42.22;102128.97;4955634;28;20053;-72
2023/05/20 11:01:04;;;;;;;4.80;1.92;;;;;;;24.96;42.75;102134.91;4958984;28;20082;-72
2023/05/20 11:03:33;;;;;;;9.57;2.15;;;;;;;25.14;42.53;102131.56;4952352;28;20051;-73
2023/05/20 11:06:09;;;;;;;7.03;2.13;;;;;;;25.26;41.64;102135.25;4948331;28;20055;-74
2023/05/20 11:08:36;;;;;;;5.80;2.20;;;;;;;25.30;40.99;102132.97;4929177;28;20475;-74
2023/05/20 11:11:03;;;;;;;5.68;1.83;;;;;;;25.52;41.67;102126.25;4950836;28;20109;-74
2023/05/20 11:13:30;;;;;;;2.78;1.70;;;;;;;25.54;40.82;102134.09;4947838;28;20092;-73
2023/05/20 11:15:58;;;;;;;4.72;1.70;;;;;;;25.64;42.03;102135.28;4950393;28;20069;-74
2023/05/20 11:18:30;;;;;;;4.90;1.85;;;;;;;25.47;40.40;102126.06;4981965;28;20082;-74
2023/05/20 11:20:59;;;;;;;3.72;2.03;;;;;;;25.31;40.58;102126.56;4947730;28;20059;-74
2023/05/20 11:23:29;;;;;;;2.28;1.67;;;;;;;25.08;41.60;102116.31;4952153;28;20558;-73
2023/05/20 11:25:56;;;;;;;3.90;2.05;;;;;;;24.92;41.26;102117.59;4959167;28;20479;-73
2023/05/20 11:28:24;;;;;;;2.95;1.70;;;;;;;24.85;41.96;102115.75;4962372;28;20384;-74